sensor_id;sensor_type;location;lat;lon;timestamp;P1;durP1;ratioP1;P2;durP2;ratioP2
39314;SDS011;28703;44.412;11.918;2023-03-04T00:01:47;31.70;;;25.67;;
39314;SDS011;28703;44.412;11.918;2023-03-04T00:04:14;36.58;;;24.85;;
39314;SDS011;28703;44.412;11.918;2023-03-04T00:06:41;36.20;;;25.13;;
39314;SDS011;28703;44.412;11.918;2023-03-04T00:09:07;36.38;;;26.25;;
39314;SDS011;28703;44.412;11.918;2023-03-04T00:11:33;41.30;;;26.80;;
39314;SDS011;28703;44.412;11.918;2023-03-04T00:13:59;37.78;;;27.15;;
39314;SDS011;28703;44.412;11.918;2023-03-04T00:16:25;39.38;;;27.75;;
39314;SDS011;28703;44.412;11.918;2023-03-04T00:18:52;37.30;;;25.17;;
39314;SDS011;28703;44.412;11.918;2023-03-04T00:21:22;37.65;;;22.63;;
39314;SDS011;28703;44.412;11.918;2023-03-04T00:23:48;35.17;;;25.90;;
39314;SDS011;28703;44.412;11.918;2023-03-04T00:26:14;33.58;;;25.50;;
39314;SDS011;28703;44.412;11.918;2023-03-04T00:28:42;34.28;;;24.25;;
39314;SDS011;28703;44.412;11.918;2023-03-04T00:31:08;37.70;;;24.98;;
39314;SDS011;28703;44.412;11.918;2023-03-04T00:33:35;31.73;;;23.63;;
39314;SDS011;28703;44.412;11.918;2023-03-04T00:36:01;33.92;;;24.45;;
39314;SDS011;28703;44.412;11.918;2023-03-04T00:38:28;30.98;;;24.45;;
39314;SDS011;28703;44.412;11.918;2023-03-04T00:40:54;35.45;;;25.08;;
39314;SDS011;28703;44.412;11.918;2023-03-04T00:43:20;31.27;;;22.70;;
39314;SDS011;28703;44.412;11.918;2023-03-04T00:45:47;31.17;;;23.27;;
39314;SDS011;28703;44.412;11.918;2023-03-04T00:48:13;31.55;;;23.00;;
39314;SDS011;28703;44.412;11.918;2023-03-04T00:50:43;35.45;;;22.35;;
39314;SDS011;28703;44.412;11.918;2023-03-04T00:53:09;33.10;;;23.95;;
39314;SDS011;28703;44.412;11.918;2023-03-04T00:55:36;29.85;;;22.73;;
39314;SDS011;28703;44.412;11.918;2023-03-04T00:58:02;28.23;;;23.00;;
39314;SDS011;28703;44.412;11.918;2023-03-04T01:00:28;35.53;;;22.98;;
39314;SDS011;28703;44.412;11.918;2023-03-04T01:02:55;29.92;;;22.17;;
39314;SDS011;28703;44.412;11.918;2023-03-04T01:05:21;24.35;;;19.83;;
39314;SDS011;28703;44.412;11.918;2023-03-04T01:07:47;28.85;;;21.35;;
39314;SDS011;28703;44.412;11.918;2023-03-04T01:10:13;28.50;;;21.63;;
39314;SDS011;28703;44.412;11.918;2023-03-04T01:12:42;23.83;;;19.52;;
39314;SDS011;28703;44.412;11.918;2023-03-04T01:15:09;23.02;;;19.27;;
39314;SDS011;28703;44.412;11.918;2023-03-04T01:17:38;31.05;;;21.52;;
39314;SDS011;28703;44.412;11.918;2023-03-04T01:20:04;26.35;;;19.48;;
39314;SDS011;28703;44.412;11.918;2023-03-04T01:22:32;26.33;;;19.67;;
39314;SDS011;28703;44.412;11.918;2023-03-04T01:24:58;27.45;;;19.83;;
39314;SDS011;28703;44.412;11.918;2023-03-04T01:27:27;25.80;;;18.75;;
39314;SDS011;28703;44.412;11.918;2023-03-04T01:29:52;26.55;;;19.70;;
39314;SDS011;28703;44.412;11.918;2023-03-04T01:32:18;28.02;;;19.65;;
39314;SDS011;28703;44.412;11.918;2023-03-04T01:34:44;30.08;;;20.83;;
39314;SDS011;28703;44.412;11.918;2023-03-04T01:37:10;28.48;;;20.63;;
39314;SDS011;28703;44.412;11.918;2023-03-04T01:39:37;24.95;;;19.02;;
39314;SDS011;28703;44.412;11.918;2023-03-04T01:42:04;26.30;;;19.17;;
39314;SDS011;28703;44.412;11.918;2023-03-04T01:44:30;26.92;;;18.48;;
39314;SDS011;28703;44.412;11.918;2023-03-04T01:46:56;27.80;;;18.75;;
39314;SDS011;28703;44.412;11.918;2023-03-04T01:49:23;27.40;;;19.38;;
39314;SDS011;28703;44.412;11.918;2023-03-04T01:51:50;24.25;;;19.30;;
39314;SDS011;28703;44.412;11.918;2023-03-04T01:54:19;23.63;;;17.13;;
39314;SDS011;28703;44.412;11.918;2023-03-04T01:56:46;25.45;;;19.50;;
39314;SDS011;28703;44.412;11.918;2023-03-04T02:01:49;19.77;;;16.88;;
39314;SDS011;28703;44.412;11.918;2023-03-04T02:04:24;25.85;;;18.90;;
39314;SDS011;28703;44.412;11.918;2023-03-04T02:06:53;29.15;;;19.30;;
39314;SDS011;28703;44.412;11.918;2023-03-04T02:09:20;27.38;;;19.58;;
39314;SDS011;28703;44.412;11.918;2023-03-04T02:11:47;23.30;;;18.15;;
39314;SDS011;28703;44.412;11.918;2023-03-04T02:14:18;25.55;;;18.02;;
39314;SDS011;28703;44.412;11.918;2023-03-04T02:16:45;29.20;;;18.00;;
39314;SDS011;28703;44.412;11.918;2023-03-04T02:22:14;25.35;;;16.92;;
39314;SDS011;28703;44.412;11.918;2023-03-04T02:24:42;26.08;;;17.98;;
39314;SDS011;28703;44.412;11.918;2023-03-04T02:27:13;26.98;;;18.55;;
39314;SDS011;28703;44.412;11.918;2023-03-04T02:29:40;26.77;;;19.15;;
39314;SDS011;28703;44.412;11.918;2023-03-04T02:32:08;24.85;;;19.40;;
39314;SDS011;28703;44.412;11.918;2023-03-04T02:34:43;28.92;;;19.48;;
39314;SDS011;28703;44.412;11.918;2023-03-04T02:37:12;26.85;;;18.08;;
39314;SDS011;28703;44.412;11.918;2023-03-04T02:39:41;27.80;;;18.30;;
39314;SDS011;28703;44.412;11.918;2023-03-04T02:42:10;32.65;;;19.25;;
39314;SDS011;28703;44.412;11.918;2023-03-04T02:44:43;31.15;;;17.80;;
39314;SDS011;28703;44.412;11.918;2023-03-04T02:47:14;24.00;;;18.38;;
39314;SDS011;28703;44.412;11.918;2023-03-04T02:49:45;28.98;;;18.65;;
39314;SDS011;28703;44.412;11.918;2023-03-04T02:52:16;25.30;;;17.88;;
39314;SDS011;28703;44.412;11.918;2023-03-04T02:54:44;27.67;;;19.13;;
39314;SDS011;28703;44.412;11.918;2023-03-04T02:57:11;28.55;;;18.42;;
39314;SDS011;28703;44.412;11.918;2023-03-04T02:59:42;30.13;;;19.40;;
39314;SDS011;28703;44.412;11.918;2023-03-04T03:02:13;25.77;;;19.55;;
39314;SDS011;28703;44.412;11.918;2023-03-04T03:04:39;26.98;;;19.08;;
39314;SDS011;28703;44.412;11.918;2023-03-04T03:07:08;25.25;;;19.67;;
39314;SDS011;28703;44.412;11.918;2023-03-04T03:09:35;30.02;;;20.85;;
39314;SDS011;28703;44.412;11.918;2023-03-04T03:12:03;29.08;;;19.60;;
39314;SDS011;28703;44.412;11.918;2023-03-04T03:14:31;30.10;;;18.90;;
39314;SDS011;28703;44.412;11.918;2023-03-04T03:16:57;28.45;;;20.08;;
39314;SDS011;28703;44.412;11.918;2023-03-04T03:19:23;34.00;;;21.67;;
39314;SDS011;28703;44.412;11.918;2023-03-04T03:21:51;26.42;;;20.38;;
39314;SDS011;28703;44.412;11.918;2023-03-04T03:24:17;30.02;;;20.38;;
39314;SDS011;28703;44.412;11.918;2023-03-04T03:26:44;28.83;;;19.50;;
39314;SDS011;28703;44.412;11.918;2023-03-04T03:29:10;27.00;;;20.85;;
39314;SDS011;28703;44.412;11.918;2023-03-04T03:31:36;36.17;;;21.25;;
39314;SDS011;28703;44.412;11.918;2023-03-04T03:34:02;24.80;;;20.13;;
39314;SDS011;28703;44.412;11.918;2023-03-04T03:36:28;26.95;;;20.10;;
39314;SDS011;28703;44.412;11.918;2023-03-04T03:38:54;25.67;;;20.35;;
39314;SDS011;28703;44.412;11.918;2023-03-04T03:41:20;30.42;;;19.67;;
39314;SDS011;28703;44.412;11.918;2023-03-04T03:43:46;29.70;;;21.40;;
39314;SDS011;28703;44.412;11.918;2023-03-04T03:46:12;29.40;;;20.15;;
39314;SDS011;28703;44.412;11.918;2023-03-04T03:48:38;34.47;;;21.08;;
39314;SDS011;28703;44.412;11.918;2023-03-04T03:51:07;34.95;;;20.95;;
39314;SDS011;28703;44.412;11.918;2023-03-04T03:53:32;28.27;;;19.90;;
39314;SDS011;28703;44.412;11.918;2023-03-04T03:55:58;30.02;;;19.80;;
39314;SDS011;28703;44.412;11.918;2023-03-04T03:58:24;31.15;;;20.13;;
39314;SDS011;28703;44.412;11.918;2023-03-04T04:00:51;30.08;;;21.33;;
39314;SDS011;28703;44.412;11.918;2023-03-04T04:03:17;32.45;;;20.60;;
39314;SDS011;28703;44.412;11.918;2023-03-04T04:05:43;25.38;;;19.98;;
39314;SDS011;28703;44.412;11.918;2023-03-04T04:08:13;31.05;;;21.42;;
39314;SDS011;28703;44.412;11.918;2023-03-04T04:10:41;33.67;;;21.45;;
39314;SDS011;28703;44.412;11.918;2023-03-04T04:13:08;43.95;;;22.83;;
39314;SDS011;28703;44.412;11.918;2023-03-04T04:15:34;31.80;;;20.98;;
39314;SDS011;28703;44.412;11.918;2023-03-04T04:18:03;35.72;;;21.67;;
39314;SDS011;28703;44.412;11.918;2023-03-04T04:20:30;35.25;;;22.63;;
39314;SDS011;28703;44.412;11.918;2023-03-04T04:22:56;35.80;;;21.20;;
39314;SDS011;28703;44.412;11.918;2023-03-04T04:25:22;30.38;;;21.02;;
39314;SDS011;28703;44.412;11.918;2023-03-04T04:27:48;32.20;;;20.38;;
39314;SDS011;28703;44.412;11.918;2023-03-04T04:30:14;39.33;;;20.30;;
39314;SDS011;28703;44.412;11.918;2023-03-04T04:32:40;40.88;;;18.67;;
39314;SDS011;28703;44.412;11.918;2023-03-04T04:35:07;27.70;;;19.30;;
39314;SDS011;28703;44.412;11.918;2023-03-04T04:37:35;37.30;;;19.05;;
39314;SDS011;28703;44.412;11.918;2023-03-04T04:40:03;25.15;;;17.95;;
39314;SDS011;28703;44.412;11.918;2023-03-04T04:42:30;48.30;;;19.48;;
39314;SDS011;28703;44.412;11.918;2023-03-04T04:44:56;27.33;;;18.88;;
39314;SDS011;28703;44.412;11.918;2023-03-04T04:47:22;33.83;;;18.42;;
39314;SDS011;28703;44.412;11.918;2023-03-04T04:49:48;26.45;;;19.35;;
39314;SDS011;28703;44.412;11.918;2023-03-04T04:52:14;42.53;;;17.58;;
39314;SDS011;28703;44.412;11.918;2023-03-04T04:54:40;35.80;;;18.83;;
39314;SDS011;28703;44.412;11.918;2023-03-04T04:57:06;53.90;;;20.83;;
39314;SDS011;28703;44.412;11.918;2023-03-04T04:59:32;34.55;;;19.67;;
39314;SDS011;28703;44.412;11.918;2023-03-04T05:02:03;41.78;;;19.00;;
39314;SDS011;28703;44.412;11.918;2023-03-04T05:04:29;31.70;;;17.65;;
39314;SDS011;28703;44.412;11.918;2023-03-04T05:07:08;53.05;;;20.02;;
39314;SDS011;28703;44.412;11.918;2023-03-04T05:09:34;35.67;;;18.90;;
39314;SDS011;28703;44.412;11.918;2023-03-04T05:12:00;45.05;;;18.90;;
39314;SDS011;28703;44.412;11.918;2023-03-04T05:14:26;55.95;;;20.92;;
39314;SDS011;28703;44.412;11.918;2023-03-04T05:16:54;41.67;;;19.35;;
39314;SDS011;28703;44.412;11.918;2023-03-04T05:19:22;41.88;;;19.70;;
39314;SDS011;28703;44.412;11.918;2023-03-04T05:21:48;31.63;;;17.83;;
39314;SDS011;28703;44.412;11.918;2023-03-04T05:24:14;32.85;;;19.60;;
39314;SDS011;28703;44.412;11.918;2023-03-04T05:26:44;40.65;;;18.30;;
39314;SDS011;28703;44.412;11.918;2023-03-04T05:29:13;38.75;;;17.95;;
39314;SDS011;28703;44.412;11.918;2023-03-04T05:31:42;39.35;;;18.05;;
39314;SDS011;28703;44.412;11.918;2023-03-04T05:34:14;26.40;;;17.58;;
39314;SDS011;28703;44.412;11.918;2023-03-04T05:39:06;31.67;;;17.20;;
39314;SDS011;28703;44.412;11.918;2023-03-04T05:41:32;40.50;;;17.05;;
39314;SDS011;28703;44.412;11.918;2023-03-04T05:43:58;53.50;;;16.77;;
39314;SDS011;28703;44.412;11.918;2023-03-04T05:46:24;55.75;;;16.10;;
39314;SDS011;28703;44.412;11.918;2023-03-04T05:48:51;34.38;;;16.10;;
39314;SDS011;28703;44.412;11.918;2023-03-04T05:51:18;40.08;;;15.93;;
39314;SDS011;28703;44.412;11.918;2023-03-04T05:53:47;30.83;;;14.98;;
39314;SDS011;28703;44.412;11.918;2023-03-04T05:56:17;35.78;;;16.33;;
39314;SDS011;28703;44.412;11.918;2023-03-04T05:58:44;25.02;;;14.90;;
39314;SDS011;28703;44.412;11.918;2023-03-04T06:03:54;20.15;;;14.95;;
39314;SDS011;28703;44.412;11.918;2023-03-04T06:06:21;20.38;;;14.52;;
39314;SDS011;28703;44.412;11.918;2023-03-04T06:08:49;23.45;;;15.68;;
39314;SDS011;28703;44.412;11.918;2023-03-04T06:11:18;26.17;;;16.27;;
39314;SDS011;28703;44.412;11.918;2023-03-04T06:13:47;28.67;;;15.50;;
39314;SDS011;28703;44.412;11.918;2023-03-04T06:16:13;19.75;;;15.50;;
39314;SDS011;28703;44.412;11.918;2023-03-04T06:18:39;17.80;;;15.27;;
39314;SDS011;28703;44.412;11.918;2023-03-04T06:21:06;20.10;;;16.25;;
39314;SDS011;28703;44.412;11.918;2023-03-04T06:23:42;20.83;;;16.40;;
39314;SDS011;28703;44.412;11.918;2023-03-04T06:26:11;21.52;;;15.93;;
39314;SDS011;28703;44.412;11.918;2023-03-04T06:28:45;20.67;;;16.33;;
39314;SDS011;28703;44.412;11.918;2023-03-04T06:31:17;21.05;;;17.00;;
39314;SDS011;28703;44.412;11.918;2023-03-04T06:33:43;21.02;;;17.30;;
39314;SDS011;28703;44.412;11.918;2023-03-04T06:36:15;25.27;;;19.00;;
39314;SDS011;28703;44.412;11.918;2023-03-04T06:38:41;23.50;;;17.00;;
39314;SDS011;28703;44.412;11.918;2023-03-04T06:41:11;24.75;;;18.60;;
39314;SDS011;28703;44.412;11.918;2023-03-04T06:43:43;22.80;;;19.43;;
39314;SDS011;28703;44.412;11.918;2023-03-04T06:46:10;22.27;;;19.20;;
39314;SDS011;28703;44.412;11.918;2023-03-04T06:48:39;24.65;;;19.55;;
39314;SDS011;28703;44.412;11.918;2023-03-04T06:51:14;28.60;;;21.80;;
39314;SDS011;28703;44.412;11.918;2023-03-04T06:53:42;29.48;;;22.27;;
39314;SDS011;28703;44.412;11.918;2023-03-04T06:56:09;27.58;;;22.27;;
39314;SDS011;28703;44.412;11.918;2023-03-04T06:58:45;27.33;;;23.02;;
39314;SDS011;28703;44.412;11.918;2023-03-04T07:01:14;32.53;;;22.40;;
39314;SDS011;28703;44.412;11.918;2023-03-04T07:03:42;30.00;;;23.15;;
39314;SDS011;28703;44.412;11.918;2023-03-04T07:06:14;29.48;;;23.25;;
39314;SDS011;28703;44.412;11.918;2023-03-04T07:08:45;33.45;;;23.85;;
39314;SDS011;28703;44.412;11.918;2023-03-04T07:11:12;35.67;;;24.13;;
39314;SDS011;28703;44.412;11.918;2023-03-04T07:13:42;39.05;;;26.38;;
39314;SDS011;28703;44.412;11.918;2023-03-04T07:16:09;36.58;;;26.10;;
39314;SDS011;28703;44.412;11.918;2023-03-04T07:18:37;43.40;;;28.13;;
39314;SDS011;28703;44.412;11.918;2023-03-04T07:21:12;37.72;;;26.83;;
39314;SDS011;28703;44.412;11.918;2023-03-04T07:23:42;40.75;;;27.90;;
39314;SDS011;28703;44.412;11.918;2023-03-04T07:26:08;35.78;;;26.88;;
39314;SDS011;28703;44.412;11.918;2023-03-04T07:28:35;35.28;;;27.75;;
39314;SDS011;28703;44.412;11.918;2023-03-04T07:33:55;46.47;;;30.73;;
39314;SDS011;28703;44.412;11.918;2023-03-04T07:36:23;41.97;;;29.35;;
39314;SDS011;28703;44.412;11.918;2023-03-04T07:38:49;45.00;;;30.13;;
39314;SDS011;28703;44.412;11.918;2023-03-04T07:41:19;44.13;;;30.60;;
39314;SDS011;28703;44.412;11.918;2023-03-04T07:43:48;44.20;;;30.70;;
39314;SDS011;28703;44.412;11.918;2023-03-04T07:46:15;46.67;;;32.70;;
39314;SDS011;28703;44.412;11.918;2023-03-04T07:48:42;44.38;;;31.35;;
39314;SDS011;28703;44.412;11.918;2023-03-04T07:51:11;50.00;;;33.88;;
39314;SDS011;28703;44.412;11.918;2023-03-04T07:53:46;48.92;;;35.30;;
39314;SDS011;28703;44.412;11.918;2023-03-04T07:56:14;47.13;;;33.92;;
39314;SDS011;28703;44.412;11.918;2023-03-04T07:58:42;54.08;;;34.22;;
39314;SDS011;28703;44.412;11.918;2023-03-04T08:01:10;46.97;;;33.42;;
39314;SDS011;28703;44.412;11.918;2023-03-04T08:03:40;55.50;;;35.55;;
39314;SDS011;28703;44.412;11.918;2023-03-04T08:06:07;51.03;;;34.25;;
39314;SDS011;28703;44.412;11.918;2023-03-04T08:08:34;53.92;;;37.88;;
39314;SDS011;28703;44.412;11.918;2023-03-04T08:11:08;60.80;;;38.60;;
39314;SDS011;28703;44.412;11.918;2023-03-04T08:16:07;56.50;;;39.10;;
39314;SDS011;28703;44.412;11.918;2023-03-04T08:18:35;64.25;;;37.45;;
39314;SDS011;28703;44.412;11.918;2023-03-04T08:21:07;50.45;;;36.22;;
39314;SDS011;28703;44.412;11.918;2023-03-04T08:23:35;51.25;;;37.65;;
39314;SDS011;28703;44.412;11.918;2023-03-04T08:26:06;57.33;;;37.15;;
39314;SDS011;28703;44.412;11.918;2023-03-04T08:28:44;53.60;;;38.58;;
39314;SDS011;28703;44.412;11.918;2023-03-04T08:31:13;47.65;;;36.80;;
39314;SDS011;28703;44.412;11.918;2023-03-04T08:33:41;54.90;;;37.25;;
39314;SDS011;28703;44.412;11.918;2023-03-04T08:36:11;52.08;;;37.63;;
39314;SDS011;28703;44.412;11.918;2023-03-04T08:38:38;54.78;;;37.30;;
39314;SDS011;28703;44.412;11.918;2023-03-04T08:41:07;55.42;;;37.28;;
39314;SDS011;28703;44.412;11.918;2023-03-04T08:43:36;51.45;;;37.65;;
39314;SDS011;28703;44.412;11.918;2023-03-04T08:46:03;51.80;;;38.50;;
39314;SDS011;28703;44.412;11.918;2023-03-04T08:48:30;54.65;;;37.53;;
39314;SDS011;28703;44.412;11.918;2023-03-04T08:50:57;51.58;;;36.20;;
39314;SDS011;28703;44.412;11.918;2023-03-04T08:53:23;56.40;;;38.13;;
39314;SDS011;28703;44.412;11.918;2023-03-04T08:55:50;52.05;;;35.72;;
39314;SDS011;28703;44.412;11.918;2023-03-04T08:58:17;49.25;;;35.70;;
39314;SDS011;28703;44.412;11.918;2023-03-04T09:00:44;47.80;;;35.65;;
39314;SDS011;28703;44.412;11.918;2023-03-04T09:03:13;49.97;;;36.60;;
39314;SDS011;28703;44.412;11.918;2023-03-04T09:05:41;52.35;;;37.72;;
39314;SDS011;28703;44.412;11.918;2023-03-04T09:08:10;54.97;;;38.22;;
39314;SDS011;28703;44.412;11.918;2023-03-04T09:10:36;53.40;;;35.28;;
39314;SDS011;28703;44.412;11.918;2023-03-04T09:13:10;50.85;;;36.28;;
39314;SDS011;28703;44.412;11.918;2023-03-04T09:15:37;49.20;;;35.80;;
39314;SDS011;28703;44.412;11.918;2023-03-04T09:18:08;45.20;;;33.03;;
39314;SDS011;28703;44.412;11.918;2023-03-04T09:20:34;44.92;;;32.85;;
39314;SDS011;28703;44.412;11.918;2023-03-04T09:23:03;43.22;;;31.73;;
39314;SDS011;28703;44.412;11.918;2023-03-04T09:25:30;38.50;;;30.90;;
39314;SDS011;28703;44.412;11.918;2023-03-04T09:27:56;43.63;;;30.38;;
39314;SDS011;28703;44.412;11.918;2023-03-04T09:30:22;44.22;;;31.70;;
39314;SDS011;28703;44.412;11.918;2023-03-04T09:32:48;41.40;;;30.67;;
39314;SDS011;28703;44.412;11.918;2023-03-04T09:35:14;43.28;;;29.55;;
39314;SDS011;28703;44.412;11.918;2023-03-04T09:37:43;44.92;;;29.67;;
39314;SDS011;28703;44.412;11.918;2023-03-04T09:40:27;40.67;;;29.38;;
39314;SDS011;28703;44.412;11.918;2023-03-04T09:43:05;43.28;;;28.42;;
39314;SDS011;28703;44.412;11.918;2023-03-04T09:45:57;40.45;;;26.33;;
39314;SDS011;28703;44.412;11.918;2023-03-04T09:48:28;35.78;;;28.08;;
39314;SDS011;28703;44.412;11.918;2023-03-04T09:54:17;36.00;;;25.75;;
39314;SDS011;28703;44.412;11.918;2023-03-04T10:05:40;31.88;;;24.35;;
39314;SDS011;28703;44.412;11.918;2023-03-04T10:11:20;33.70;;;24.65;;
39314;SDS011;28703;44.412;11.918;2023-03-04T10:16:51;33.88;;;25.55;;
39314;SDS011;28703;44.412;11.918;2023-03-04T10:21:55;33.70;;;24.70;;
39314;SDS011;28703;44.412;11.918;2023-03-04T10:24:27;33.50;;;25.08;;
39314;SDS011;28703;44.412;11.918;2023-03-04T10:27:01;32.67;;;24.52;;
39314;SDS011;28703;44.412;11.918;2023-03-04T10:29:31;31.65;;;24.63;;
39314;SDS011;28703;44.412;11.918;2023-03-04T10:31:58;39.17;;;24.70;;
39314;SDS011;28703;44.412;11.918;2023-03-04T10:34:24;33.58;;;25.17;;
39314;SDS011;28703;44.412;11.918;2023-03-04T10:39:21;35.25;;;26.08;;
39314;SDS011;28703;44.412;11.918;2023-03-04T10:42:33;36.53;;;26.17;;
39314;SDS011;28703;44.412;11.918;2023-03-04T10:44:41;31.65;;;23.80;;
39314;SDS011;28703;44.412;11.918;2023-03-04T10:47:09;34.33;;;25.27;;
39314;SDS011;28703;44.412;11.918;2023-03-04T10:49:48;31.75;;;24.33;;
39314;SDS011;28703;44.412;11.918;2023-03-04T10:52:22;39.85;;;25.67;;
39314;SDS011;28703;44.412;11.918;2023-03-04T10:54:59;37.83;;;24.20;;
39314;SDS011;28703;44.412;11.918;2023-03-04T10:57:34;36.03;;;25.95;;
39314;SDS011;28703;44.412;11.918;2023-03-04T11:05:48;36.80;;;26.23;;
39314;SDS011;28703;44.412;11.918;2023-03-04T11:08:16;38.35;;;28.48;;
39314;SDS011;28703;44.412;11.918;2023-03-04T11:10:43;40.88;;;26.40;;
39314;SDS011;28703;44.412;11.918;2023-03-04T11:21:21;35.13;;;25.08;;
39314;SDS011;28703;44.412;11.918;2023-03-04T11:23:51;33.20;;;24.23;;
39314;SDS011;28703;44.412;11.918;2023-03-04T11:26:22;29.77;;;25.02;;
39314;SDS011;28703;44.412;11.918;2023-03-04T11:29:07;33.10;;;25.02;;
39314;SDS011;28703;44.412;11.918;2023-03-04T11:31:49;32.65;;;24.60;;
39314;SDS011;28703;44.412;11.918;2023-03-04T11:37:07;33.67;;;24.65;;
39314;SDS011;28703;44.412;11.918;2023-03-04T11:39:40;32.72;;;23.38;;
39314;SDS011;28703;44.412;11.918;2023-03-04T11:42:17;37.25;;;27.08;;
39314;SDS011;28703;44.412;11.918;2023-03-04T11:45:12;35.72;;;24.73;;
39314;SDS011;28703;44.412;11.918;2023-03-04T11:47:59;34.72;;;25.92;;
39314;SDS011;28703;44.412;11.918;2023-03-04T11:50:47;32.40;;;24.35;;
39314;SDS011;28703;44.412;11.918;2023-03-04T12:16:10;32.13;;;24.55;;
39314;SDS011;28703;44.412;11.918;2023-03-04T12:29:51;34.40;;;24.40;;
39314;SDS011;28703;44.412;11.918;2023-03-04T12:37:45;32.60;;;23.63;;
39314;SDS011;28703;44.412;11.918;2023-03-04T12:40:24;28.20;;;21.27;;
39314;SDS011;28703;44.412;11.918;2023-03-04T12:48:41;30.38;;;22.58;;
39314;SDS011;28703;44.412;11.918;2023-03-04T12:51:39;31.58;;;21.70;;
39314;SDS011;28703;44.412;11.918;2023-03-04T12:57:15;32.40;;;22.77;;
39314;SDS011;28703;44.412;11.918;2023-03-04T13:10:45;29.02;;;20.85;;
39314;SDS011;28703;44.412;11.918;2023-03-04T13:16:49;28.25;;;21.75;;
39314;SDS011;28703;44.412;11.918;2023-03-04T13:18:57;29.65;;;22.15;;
39314;SDS011;28703;44.412;11.918;2023-03-04T13:21:30;27.92;;;20.00;;
39314;SDS011;28703;44.412;11.918;2023-03-04T13:23:56;36.20;;;21.50;;
39314;SDS011;28703;44.412;11.918;2023-03-04T13:26:43;28.02;;;19.05;;
39314;SDS011;28703;44.412;11.918;2023-03-04T13:29:19;25.35;;;17.67;;
39314;SDS011;28703;44.412;11.918;2023-03-04T13:32:07;23.60;;;17.55;;
39314;SDS011;28703;44.412;11.918;2023-03-04T13:37:26;24.08;;;18.00;;
39314;SDS011;28703;44.412;11.918;2023-03-04T13:43:42;25.98;;;16.02;;
39314;SDS011;28703;44.412;11.918;2023-03-04T13:45:50;23.35;;;16.30;;
39314;SDS011;28703;44.412;11.918;2023-03-04T13:48:24;20.90;;;16.17;;
39314;SDS011;28703;44.412;11.918;2023-03-04T13:50:53;22.42;;;16.50;;
39314;SDS011;28703;44.412;11.918;2023-03-04T13:56:27;25.75;;;15.18;;
39314;SDS011;28703;44.412;11.918;2023-03-04T13:59:07;16.63;;;13.15;;
39314;SDS011;28703;44.412;11.918;2023-03-04T14:06:53;19.13;;;13.30;;
39314;SDS011;28703;44.412;11.918;2023-03-04T14:09:23;19.98;;;14.15;;
39314;SDS011;28703;44.412;11.918;2023-03-04T14:11:52;19.98;;;14.60;;
39314;SDS011;28703;44.412;11.918;2023-03-04T14:14:22;26.83;;;16.77;;
39314;SDS011;28703;44.412;11.918;2023-03-04T14:16:59;21.90;;;14.93;;
39314;SDS011;28703;44.412;11.918;2023-03-04T14:19:28;21.33;;;15.75;;
39314;SDS011;28703;44.412;11.918;2023-03-04T14:22:00;22.77;;;14.38;;
39314;SDS011;28703;44.412;11.918;2023-03-04T14:24:26;20.52;;;14.77;;
39314;SDS011;28703;44.412;11.918;2023-03-04T14:27:11;19.13;;;14.55;;
39314;SDS011;28703;44.412;11.918;2023-03-04T14:29:38;18.33;;;15.30;;
39314;SDS011;28703;44.412;11.918;2023-03-04T14:32:04;23.10;;;17.08;;
39314;SDS011;28703;44.412;11.918;2023-03-04T14:34:37;23.88;;;15.90;;
39314;SDS011;28703;44.412;11.918;2023-03-04T14:37:21;23.80;;;18.08;;
39314;SDS011;28703;44.412;11.918;2023-03-04T14:39:49;25.20;;;17.83;;
39314;SDS011;28703;44.412;11.918;2023-03-04T14:42:18;21.48;;;15.55;;
39314;SDS011;28703;44.412;11.918;2023-03-04T14:44:47;23.77;;;16.63;;
39314;SDS011;28703;44.412;11.918;2023-03-04T14:47:19;17.25;;;14.75;;
39314;SDS011;28703;44.412;11.918;2023-03-04T14:49:51;18.77;;;15.52;;
39314;SDS011;28703;44.412;11.918;2023-03-04T14:52:37;20.33;;;15.02;;
39314;SDS011;28703;44.412;11.918;2023-03-04T14:55:24;19.40;;;14.25;;
39314;SDS011;28703;44.412;11.918;2023-03-04T15:01:12;18.23;;;15.00;;
39314;SDS011;28703;44.412;11.918;2023-03-04T15:06:20;22.77;;;15.65;;
39314;SDS011;28703;44.412;11.918;2023-03-04T15:08:56;19.85;;;16.88;;
39314;SDS011;28703;44.412;11.918;2023-03-04T15:11:26;19.92;;;14.50;;
39314;SDS011;28703;44.412;11.918;2023-03-04T15:13:57;21.50;;;14.90;;
39314;SDS011;28703;44.412;11.918;2023-03-04T15:16:25;23.00;;;15.23;;
39314;SDS011;28703;44.412;11.918;2023-03-04T15:21:28;21.35;;;15.98;;
39314;SDS011;28703;44.412;11.918;2023-03-04T15:23:56;27.48;;;16.05;;
39314;SDS011;28703;44.412;11.918;2023-03-04T15:26:22;22.40;;;15.27;;
39314;SDS011;28703;44.412;11.918;2023-03-04T15:28:48;18.38;;;15.05;;
39314;SDS011;28703;44.412;11.918;2023-03-04T15:31:15;22.40;;;15.27;;
39314;SDS011;28703;44.412;11.918;2023-03-04T15:33:43;18.30;;;15.32;;
39314;SDS011;28703;44.412;11.918;2023-03-04T15:36:11;20.73;;;15.38;;
39314;SDS011;28703;44.412;11.918;2023-03-04T15:38:40;25.00;;;18.90;;
39314;SDS011;28703;44.412;11.918;2023-03-04T15:41:09;21.00;;;15.35;;
39314;SDS011;28703;44.412;11.918;2023-03-04T15:43:37;27.90;;;20.05;;
39314;SDS011;28703;44.412;11.918;2023-03-04T15:46:03;19.48;;;13.82;;
39314;SDS011;28703;44.412;11.918;2023-03-04T15:48:29;16.77;;;12.82;;
39314;SDS011;28703;44.412;11.918;2023-03-04T15:50:57;18.33;;;13.68;;
39314;SDS011;28703;44.412;11.918;2023-03-04T15:53:32;20.20;;;13.25;;
39314;SDS011;28703;44.412;11.918;2023-03-04T15:56:07;14.27;;;12.73;;
39314;SDS011;28703;44.412;11.918;2023-03-04T15:58:36;19.33;;;13.23;;
39314;SDS011;28703;44.412;11.918;2023-03-04T16:01:04;19.20;;;12.77;;
39314;SDS011;28703;44.412;11.918;2023-03-04T16:03:30;15.45;;;12.48;;
39314;SDS011;28703;44.412;11.918;2023-03-04T16:05:59;20.05;;;14.25;;
39314;SDS011;28703;44.412;11.918;2023-03-04T16:08:25;21.92;;;14.55;;
39314;SDS011;28703;44.412;11.918;2023-03-04T16:10:51;17.60;;;14.23;;
39314;SDS011;28703;44.412;11.918;2023-03-04T16:13:20;22.20;;;13.90;;
39314;SDS011;28703;44.412;11.918;2023-03-04T16:15:50;16.10;;;14.13;;
39314;SDS011;28703;44.412;11.918;2023-03-04T16:18:21;20.38;;;14.25;;
39314;SDS011;28703;44.412;11.918;2023-03-04T16:20:49;18.47;;;14.43;;
39314;SDS011;28703;44.412;11.918;2023-03-04T16:23:17;21.30;;;15.07;;
39314;SDS011;28703;44.412;11.918;2023-03-04T16:25:47;19.00;;;14.73;;
39314;SDS011;28703;44.412;11.918;2023-03-04T16:28:15;22.52;;;16.05;;
39314;SDS011;28703;44.412;11.918;2023-03-04T16:30:44;22.33;;;16.75;;
39314;SDS011;28703;44.412;11.918;2023-03-04T16:33:13;22.85;;;16.35;;
39314;SDS011;28703;44.412;11.918;2023-03-04T16:35:40;21.80;;;17.35;;
39314;SDS011;28703;44.412;11.918;2023-03-04T16:38:18;24.65;;;17.33;;
39314;SDS011;28703;44.412;11.918;2023-03-04T16:40:54;25.17;;;17.02;;
39314;SDS011;28703;44.412;11.918;2023-03-04T16:43:23;23.42;;;16.60;;